sensor_id;sensor_type;location;lat;lon;timestamp;P1;durP1;ratioP1;P2;durP2;ratioP2
6651;SDS011;3362;50.892;10.692;2023-09-08T00:00:44;3.90;;;2.95;;
6651;SDS011;3362;50.892;10.692;2023-09-08T00:05:36;4.18;;;3.60;;
6651;SDS011;3362;50.892;10.692;2023-09-08T00:08:03;5.38;;;3.70;;
6651;SDS011;3362;50.892;10.692;2023-09-08T00:10:30;4.07;;;3.08;;
6651;SDS011;3362;50.892;10.692;2023-09-08T00:12:56;4.10;;;3.45;;
6651;SDS011;3362;50.892;10.692;2023-09-08T00:15:24;7.10;;;3.72;;
6651;SDS011;3362;50.892;10.692;2023-09-08T00:17:50;4.28;;;3.33;;
6651;SDS011;3362;50.892;10.692;2023-09-08T00:22:42;4.28;;;3.42;;
6651;SDS011;3362;50.892;10.692;2023-09-08T00:25:08;4.25;;;3.65;;
6651;SDS011;3362;50.892;10.692;2023-09-08T00:27:35;6.43;;;3.92;;
6651;SDS011;3362;50.892;10.692;2023-09-08T00:30:01;3.97;;;3.58;;
6651;SDS011;3362;50.892;10.692;2023-09-08T00:32:30;4.28;;;3.28;;
6651;SDS011;3362;50.892;10.692;2023-09-08T00:34:56;4.38;;;3.80;;
6651;SDS011;3362;50.892;10.692;2023-09-08T00:37:22;5.63;;;4.20;;
6651;SDS011;3362;50.892;10.692;2023-09-08T00:39:49;4.40;;;3.50;;
6651;SDS011;3362;50.892;10.692;2023-09-08T00:42:15;4.53;;;3.67;;
6651;SDS011;3362;50.892;10.692;2023-09-08T00:44:41;3.90;;;3.15;;
6651;SDS011;3362;50.892;10.692;2023-09-08T00:49:35;3.53;;;2.90;;
6651;SDS011;3362;50.892;10.692;2023-09-08T00:52:01;5.10;;;4.07;;
6651;SDS011;3362;50.892;10.692;2023-09-08T00:56:54;4.32;;;2.70;;
6651;SDS011;3362;50.892;10.692;2023-09-08T00:59:21;4.30;;;3.45;;
6651;SDS011;3362;50.892;10.692;2023-09-08T01:04:13;3.40;;;3.10;;
6651;SDS011;3362;50.892;10.692;2023-09-08T01:06:41;4.10;;;2.97;;
6651;SDS011;3362;50.892;10.692;2023-09-08T01:09:07;5.63;;;2.97;;
6651;SDS011;3362;50.892;10.692;2023-09-08T01:14:00;4.35;;;3.35;;
6651;SDS011;3362;50.892;10.692;2023-09-08T01:16:26;4.75;;;3.72;;
6651;SDS011;3362;50.892;10.692;2023-09-08T01:18:52;6.28;;;3.28;;
6651;SDS011;3362;50.892;10.692;2023-09-08T01:21:32;4.22;;;3.15;;
6651;SDS011;3362;50.892;10.692;2023-09-08T01:24:11;4.53;;;3.83;;
6651;SDS011;3362;50.892;10.692;2023-09-08T01:26:40;4.15;;;3.25;;
6651;SDS011;3362;50.892;10.692;2023-09-08T01:29:07;4.72;;;4.30;;
6651;SDS011;3362;50.892;10.692;2023-09-08T01:31:34;5.95;;;3.75;;
6651;SDS011;3362;50.892;10.692;2023-09-08T01:34:01;4.43;;;2.95;;
6651;SDS011;3362;50.892;10.692;2023-09-08T01:36:31;8.80;;;3.55;;
6651;SDS011;3362;50.892;10.692;2023-09-08T01:41:24;3.30;;;2.45;;
6651;SDS011;3362;50.892;10.692;2023-09-08T01:43:51;3.67;;;3.38;;
6651;SDS011;3362;50.892;10.692;2023-09-08T01:46:17;3.92;;;3.20;;
6651;SDS011;3362;50.892;10.692;2023-09-08T01:48:44;8.30;;;4.18;;
6651;SDS011;3362;50.892;10.692;2023-09-08T01:51:10;5.30;;;4.22;;
6651;SDS011;3362;50.892;10.692;2023-09-08T01:53:36;4.43;;;3.92;;
6651;SDS011;3362;50.892;10.692;2023-09-08T01:56:03;4.85;;;4.35;;
6651;SDS011;3362;50.892;10.692;2023-09-08T01:58:29;4.10;;;3.50;;
6651;SDS011;3362;50.892;10.692;2023-09-08T02:00:57;4.30;;;3.20;;
6651;SDS011;3362;50.892;10.692;2023-09-08T02:03:28;5.15;;;4.03;;
6651;SDS011;3362;50.892;10.692;2023-09-08T02:05:54;4.93;;;4.18;;
6651;SDS011;3362;50.892;10.692;2023-09-08T02:08:20;3.38;;;3.08;;
6651;SDS011;3362;50.892;10.692;2023-09-08T02:10:46;5.35;;;3.33;;
6651;SDS011;3362;50.892;10.692;2023-09-08T02:13:13;5.28;;;3.63;;
6651;SDS011;3362;50.892;10.692;2023-09-08T02:15:39;3.65;;;3.30;;
6651;SDS011;3362;50.892;10.692;2023-09-08T02:18:07;3.70;;;3.20;;
6651;SDS011;3362;50.892;10.692;2023-09-08T02:20:33;7.25;;;3.22;;
6651;SDS011;3362;50.892;10.692;2023-09-08T02:23:04;4.07;;;3.60;;
6651;SDS011;3362;50.892;10.692;2023-09-08T02:25:31;4.60;;;2.92;;
6651;SDS011;3362;50.892;10.692;2023-09-08T02:27:57;4.88;;;3.58;;
6651;SDS011;3362;50.892;10.692;2023-09-08T02:30:23;6.22;;;3.30;;
6651;SDS011;3362;50.892;10.692;2023-09-08T02:32:49;3.85;;;3.42;;
6651;SDS011;3362;50.892;10.692;2023-09-08T02:35:17;4.72;;;3.28;;
6651;SDS011;3362;50.892;10.692;2023-09-08T02:37:43;5.50;;;3.25;;
6651;SDS011;3362;50.892;10.692;2023-09-08T02:40:10;2.92;;;2.60;;
6651;SDS011;3362;50.892;10.692;2023-09-08T02:42:36;4.10;;;3.72;;
6651;SDS011;3362;50.892;10.692;2023-09-08T02:45:02;4.95;;;3.10;;
6651;SDS011;3362;50.892;10.692;2023-09-08T02:49:55;3.70;;;3.25;;
6651;SDS011;3362;50.892;10.692;2023-09-08T02:52:23;3.60;;;2.75;;
6651;SDS011;3362;50.892;10.692;2023-09-08T02:54:49;5.50;;;4.45;;
6651;SDS011;3362;50.892;10.692;2023-09-08T02:57:16;3.75;;;3.30;;
6651;SDS011;3362;50.892;10.692;2023-09-08T02:59:42;4.80;;;2.78;;
6651;SDS011;3362;50.892;10.692;2023-09-08T03:02:08;5.78;;;4.38;;
6651;SDS011;3362;50.892;10.692;2023-09-08T03:04:34;5.03;;;3.20;;
6651;SDS011;3362;50.892;10.692;2023-09-08T03:09:28;4.38;;;3.28;;
6651;SDS011;3362;50.892;10.692;2023-09-08T03:11:54;3.65;;;2.78;;
6651;SDS011;3362;50.892;10.692;2023-09-08T03:14:21;4.43;;;2.72;;
6651;SDS011;3362;50.892;10.692;2023-09-08T03:16:47;6.28;;;3.00;;
6651;SDS011;3362;50.892;10.692;2023-09-08T03:19:13;3.60;;;3.30;;
6651;SDS011;3362;50.892;10.692;2023-09-08T03:21:39;3.03;;;2.83;;
6651;SDS011;3362;50.892;10.692;2023-09-08T03:24:06;4.82;;;2.38;;
6651;SDS011;3362;50.892;10.692;2023-09-08T03:29:00;3.55;;;2.92;;
6651;SDS011;3362;50.892;10.692;2023-09-08T03:31:26;4.53;;;2.97;;
6651;SDS011;3362;50.892;10.692;2023-09-08T03:36:18;6.15;;;3.05;;
6651;SDS011;3362;50.892;10.692;2023-09-08T03:38:45;4.57;;;2.72;;
6651;SDS011;3362;50.892;10.692;2023-09-08T03:41:11;3.45;;;2.50;;
6651;SDS011;3362;50.892;10.692;2023-09-08T03:43:37;4.43;;;3.58;;
6651;SDS011;3362;50.892;10.692;2023-09-08T03:46:05;4.03;;;2.85;;
6651;SDS011;3362;50.892;10.692;2023-09-08T03:48:31;3.83;;;2.55;;
6651;SDS011;3362;50.892;10.692;2023-09-08T03:50:57;4.07;;;2.92;;
6651;SDS011;3362;50.892;10.692;2023-09-08T03:55:50;4.85;;;2.58;;
6651;SDS011;3362;50.892;10.692;2023-09-08T03:58:16;5.03;;;3.53;;
6651;SDS011;3362;50.892;10.692;2023-09-08T04:00:42;3.05;;;2.75;;
6651;SDS011;3362;50.892;10.692;2023-09-08T04:03:10;4.18;;;2.35;;
6651;SDS011;3362;50.892;10.692;2023-09-08T04:05:37;3.03;;;2.75;;
6651;SDS011;3362;50.892;10.692;2023-09-08T04:08:04;4.03;;;2.85;;
6651;SDS011;3362;50.892;10.692;2023-09-08T04:10:31;5.65;;;3.17;;
6651;SDS011;3362;50.892;10.692;2023-09-08T04:12:57;8.23;;;2.55;;
6651;SDS011;3362;50.892;10.692;2023-09-08T04:15:23;3.85;;;2.92;;
6651;SDS011;3362;50.892;10.692;2023-09-08T04:17:50;2.95;;;2.63;;
6651;SDS011;3362;50.892;10.692;2023-09-08T04:20:17;2.35;;;2.15;;
6651;SDS011;3362;50.892;10.692;2023-09-08T04:22:44;5.10;;;3.05;;
6651;SDS011;3362;50.892;10.692;2023-09-08T04:25:10;3.35;;;3.05;;
6651;SDS011;3362;50.892;10.692;2023-09-08T04:27:36;6.07;;;3.53;;
6651;SDS011;3362;50.892;10.692;2023-09-08T04:30:03;3.28;;;2.90;;
6651;SDS011;3362;50.892;10.692;2023-09-08T04:32:29;3.72;;;2.65;;
6651;SDS011;3362;50.892;10.692;2023-09-08T04:34:56;3.17;;;2.90;;
6651;SDS011;3362;50.892;10.692;2023-09-08T04:37:23;4.07;;;2.95;;
6651;SDS011;3362;50.892;10.692;2023-09-08T04:39:50;3.80;;;3.08;;
6651;SDS011;3362;50.892;10.692;2023-09-08T04:42:16;6.15;;;3.88;;
6651;SDS011;3362;50.892;10.692;2023-09-08T04:44:42;3.15;;;2.80;;
6651;SDS011;3362;50.892;10.692;2023-09-08T04:47:08;2.85;;;2.40;;
6651;SDS011;3362;50.892;10.692;2023-09-08T04:49:35;3.80;;;2.97;;
6651;SDS011;3362;50.892;10.692;2023-09-08T04:52:02;4.95;;;3.03;;
6651;SDS011;3362;50.892;10.692;2023-09-08T04:56:56;4.00;;;2.20;;
6651;SDS011;3362;50.892;10.692;2023-09-08T04:59:22;4.93;;;2.60;;
6651;SDS011;3362;50.892;10.692;2023-09-08T05:01:49;4.38;;;2.95;;
6651;SDS011;3362;50.892;10.692;2023-09-08T05:04:16;2.58;;;2.38;;
6651;SDS011;3362;50.892;10.692;2023-09-08T05:06:42;5.07;;;3.22;;
6651;SDS011;3362;50.892;10.692;2023-09-08T05:09:08;4.60;;;3.42;;
6651;SDS011;3362;50.892;10.692;2023-09-08T05:11:35;4.43;;;2.95;;
6651;SDS011;3362;50.892;10.692;2023-09-08T05:14:02;5.00;;;3.63;;
6651;SDS011;3362;50.892;10.692;2023-09-08T05:16:29;4.65;;;2.85;;
6651;SDS011;3362;50.892;10.692;2023-09-08T05:19:04;5.70;;;2.72;;
6651;SDS011;3362;50.892;10.692;2023-09-08T05:23:57;3.50;;;2.50;;
6651;SDS011;3362;50.892;10.692;2023-09-08T05:26:23;2.80;;;2.17;;
6651;SDS011;3362;50.892;10.692;2023-09-08T05:28:49;3.25;;;2.63;;
6651;SDS011;3362;50.892;10.692;2023-09-08T05:31:17;3.72;;;2.78;;
6651;SDS011;3362;50.892;10.692;2023-09-08T05:33:43;3.63;;;2.40;;
6651;SDS011;3362;50.892;10.692;2023-09-08T05:36:09;4.18;;;2.75;;
6651;SDS011;3362;50.892;10.692;2023-09-08T05:38:36;3.72;;;3.40;;
6651;SDS011;3362;50.892;10.692;2023-09-08T05:41:02;2.90;;;2.50;;
6651;SDS011;3362;50.892;10.692;2023-09-08T05:43:28;3.10;;;2.78;;
6651;SDS011;3362;50.892;10.692;2023-09-08T05:45:54;3.38;;;3.13;;
6651;SDS011;3362;50.892;10.692;2023-09-08T05:48:22;6.63;;;3.42;;
6651;SDS011;3362;50.892;10.692;2023-09-08T05:50:48;4.28;;;2.90;;
6651;SDS011;3362;50.892;10.692;2023-09-08T05:53:15;7.03;;;3.55;;
6651;SDS011;3362;50.892;10.692;2023-09-08T05:55:41;6.50;;;4.13;;
6651;SDS011;3362;50.892;10.692;2023-09-08T05:58:07;5.47;;;3.03;;
6651;SDS011;3362;50.892;10.692;2023-09-08T06:00:33;4.65;;;3.10;;
6651;SDS011;3362;50.892;10.692;2023-09-08T06:03:00;3.80;;;2.75;;
6651;SDS011;3362;50.892;10.692;2023-09-08T06:05:27;4.47;;;3.58;;
6651;SDS011;3362;50.892;10.692;2023-09-08T06:07:53;5.13;;;3.25;;
6651;SDS011;3362;50.892;10.692;2023-09-08T06:10:20;7.82;;;3.42;;
6651;SDS011;3362;50.892;10.692;2023-09-08T06:12:46;3.97;;;3.58;;
6651;SDS011;3362;50.892;10.692;2023-09-08T06:15:15;5.05;;;2.80;;
6651;SDS011;3362;50.892;10.692;2023-09-08T06:17:41;4.15;;;3.22;;
6651;SDS011;3362;50.892;10.692;2023-09-08T06:20:08;5.80;;;4.60;;
6651;SDS011;3362;50.892;10.692;2023-09-08T06:22:36;4.95;;;4.07;;
6651;SDS011;3362;50.892;10.692;2023-09-08T06:25:02;2.92;;;2.65;;
6651;SDS011;3362;50.892;10.692;2023-09-08T06:27:28;4.30;;;3.55;;
6651;SDS011;3362;50.892;10.692;2023-09-08T06:29:55;3.38;;;3.13;;
6651;SDS011;3362;50.892;10.692;2023-09-08T06:32:22;5.45;;;3.75;;
6651;SDS011;3362;50.892;10.692;2023-09-08T06:34:48;5.22;;;2.78;;
6651;SDS011;3362;50.892;10.692;2023-09-08T06:37:14;10.55;;;3.42;;
6651;SDS011;3362;50.892;10.692;2023-09-08T06:39:42;6.68;;;4.03;;
6651;SDS011;3362;50.892;10.692;2023-09-08T06:42:08;4.15;;;3.72;;
6651;SDS011;3362;50.892;10.692;2023-09-08T06:44:34;5.40;;;3.75;;
6651;SDS011;3362;50.892;10.692;2023-09-08T06:47:01;6.57;;;4.20;;
6651;SDS011;3362;50.892;10.692;2023-09-08T06:49:28;11.85;;;4.80;;
6651;SDS011;3362;50.892;10.692;2023-09-08T06:54:20;7.78;;;5.00;;
6651;SDS011;3362;50.892;10.692;2023-09-08T06:56:48;6.55;;;4.68;;
6651;SDS011;3362;50.892;10.692;2023-09-08T06:59:14;7.50;;;4.85;;
6651;SDS011;3362;50.892;10.692;2023-09-08T07:01:42;8.07;;;4.75;;
6651;SDS011;3362;50.892;10.692;2023-09-08T07:06:35;5.88;;;3.95;;
6651;SDS011;3362;50.892;10.692;2023-09-08T07:09:03;7.53;;;5.10;;
6651;SDS011;3362;50.892;10.692;2023-09-08T07:13:57;7.10;;;4.75;;
6651;SDS011;3362;50.892;10.692;2023-09-08T07:16:23;5.55;;;4.93;;
6651;SDS011;3362;50.892;10.692;2023-09-08T07:18:49;7.40;;;4.78;;
6651;SDS011;3362;50.892;10.692;2023-09-08T07:23:42;3.30;;;2.80;;
6651;SDS011;3362;50.892;10.692;2023-09-08T07:28:34;6.50;;;4.72;;
6651;SDS011;3362;50.892;10.692;2023-09-08T07:33:28;7.45;;;4.30;;
6651;SDS011;3362;50.892;10.692;2023-09-08T07:35:55;5.22;;;4.03;;
6651;SDS011;3362;50.892;10.692;2023-09-08T07:40:47;7.57;;;4.10;;
6651;SDS011;3362;50.892;10.692;2023-09-08T07:45:40;7.15;;;4.38;;
6651;SDS011;3362;50.892;10.692;2023-09-08T07:48:06;6.03;;;4.07;;
6651;SDS011;3362;50.892;10.692;2023-09-08T07:50:34;6.82;;;5.47;;
6651;SDS011;3362;50.892;10.692;2023-09-08T07:53:00;13.15;;;5.10;;
6651;SDS011;3362;50.892;10.692;2023-09-08T07:57:54;5.47;;;4.13;;
6651;SDS011;3362;50.892;10.692;2023-09-08T08:00:20;9.85;;;5.20;;
6651;SDS011;3362;50.892;10.692;2023-09-08T08:02:47;6.05;;;4.55;;
6651;SDS011;3362;50.892;10.692;2023-09-08T08:05:14;6.57;;;5.22;;
6651;SDS011;3362;50.892;10.692;2023-09-08T08:07:42;8.20;;;5.45;;
6651;SDS011;3362;50.892;10.692;2023-09-08T08:10:09;7.60;;;4.20;;
6651;SDS011;3362;50.892;10.692;2023-09-08T08:12:35;8.32;;;4.57;;
6651;SDS011;3362;50.892;10.692;2023-09-08T08:17:28;7.57;;;4.35;;
6651;SDS011;3362;50.892;10.692;2023-09-08T08:19:55;7.85;;;6.70;;
6651;SDS011;3362;50.892;10.692;2023-09-08T08:22:23;11.18;;;6.47;;
6651;SDS011;3362;50.892;10.692;2023-09-08T08:24:51;14.55;;;6.32;;
6651;SDS011;3362;50.892;10.692;2023-09-08T08:27:17;7.65;;;5.32;;
6651;SDS011;3362;50.892;10.692;2023-09-08T08:29:43;6.32;;;4.65;;
6651;SDS011;3362;50.892;10.692;2023-09-08T08:32:09;9.98;;;4.80;;
6651;SDS011;3362;50.892;10.692;2023-09-08T08:34:37;6.78;;;5.45;;
6651;SDS011;3362;50.892;10.692;2023-09-08T08:37:03;7.30;;;4.00;;
6651;SDS011;3362;50.892;10.692;2023-09-08T08:41:57;8.45;;;4.40;;
6651;SDS011;3362;50.892;10.692;2023-09-08T08:44:23;5.97;;;4.20;;
6651;SDS011;3362;50.892;10.692;2023-09-08T08:46:50;4.68;;;4.25;;
6651;SDS011;3362;50.892;10.692;2023-09-08T08:49:17;5.35;;;3.53;;
6651;SDS011;3362;50.892;10.692;2023-09-08T08:51:44;7.20;;;4.30;;
6651;SDS011;3362;50.892;10.692;2023-09-08T08:54:11;6.35;;;5.43;;
6651;SDS011;3362;50.892;10.692;2023-09-08T08:56:38;12.65;;;5.55;;
6651;SDS011;3362;50.892;10.692;2023-09-08T08:59:06;14.45;;;7.80;;
6651;SDS011;3362;50.892;10.692;2023-09-08T09:01:32;20.30;;;9.25;;
6651;SDS011;3362;50.892;10.692;2023-09-08T09:03:59;14.02;;;7.68;;
6651;SDS011;3362;50.892;10.692;2023-09-08T09:06:25;6.10;;;4.00;;
6651;SDS011;3362;50.892;10.692;2023-09-08T09:08:52;9.32;;;4.82;;
6651;SDS011;3362;50.892;10.692;2023-09-08T09:11:19;8.30;;;5.13;;
6651;SDS011;3362;50.892;10.692;2023-09-08T09:13:45;6.70;;;4.55;;
6651;SDS011;3362;50.892;10.692;2023-09-08T09:16:13;10.02;;;4.75;;
6651;SDS011;3362;50.892;10.692;2023-09-08T09:18:53;14.75;;;6.18;;
6651;SDS011;3362;50.892;10.692;2023-09-08T09:21:19;10.65;;;5.63;;
6651;SDS011;3362;50.892;10.692;2023-09-08T09:23:45;16.60;;;8.30;;
6651;SDS011;3362;50.892;10.692;2023-09-08T09:26:12;10.88;;;5.32;;
6651;SDS011;3362;50.892;10.692;2023-09-08T09:28:48;8.73;;;5.93;;
6651;SDS011;3362;50.892;10.692;2023-09-08T09:31:18;9.20;;;5.95;;
6651;SDS011;3362;50.892;10.692;2023-09-08T09:33:44;30.92;;;14.60;;
6651;SDS011;3362;50.892;10.692;2023-09-08T09:36:12;23.65;;;12.80;;
6651;SDS011;3362;50.892;10.692;2023-09-08T09:38:45;9.38;;;6.88;;
6651;SDS011;3362;50.892;10.692;2023-09-08T09:41:12;28.52;;;11.77;;
6651;SDS011;3362;50.892;10.692;2023-09-08T09:43:39;29.75;;;15.02;;
6651;SDS011;3362;50.892;10.692;2023-09-08T09:46:06;28.40;;;16.65;;
6651;SDS011;3362;50.892;10.692;2023-09-08T09:48:35;13.18;;;7.97;;
6651;SDS011;3362;50.892;10.692;2023-09-08T09:51:14;9.32;;;5.32;;
6651;SDS011;3362;50.892;10.692;2023-09-08T09:53:41;10.27;;;5.43;;
6651;SDS011;3362;50.892;10.692;2023-09-08T09:56:07;13.75;;;7.40;;
6651;SDS011;3362;50.892;10.692;2023-09-08T09:58:34;4.63;;;3.42;;
6651;SDS011;3362;50.892;10.692;2023-09-08T10:01:01;12.05;;;6.32;;
6651;SDS011;3362;50.892;10.692;2023-09-08T10:03:29;18.75;;;9.93;;
6651;SDS011;3362;50.892;10.692;2023-09-08T10:05:57;14.20;;;6.35;;
6651;SDS011;3362;50.892;10.692;2023-09-08T10:08:23;9.30;;;4.88;;
6651;SDS011;3362;50.892;10.692;2023-09-08T10:10:50;5.30;;;3.50;;
6651;SDS011;3362;50.892;10.692;2023-09-08T10:13:17;5.00;;;3.30;;
6651;SDS011;3362;50.892;10.692;2023-09-08T10:15:44;15.38;;;4.70;;
6651;SDS011;3362;50.892;10.692;2023-09-08T10:18:11;12.65;;;5.10;;
6651;SDS011;3362;50.892;10.692;2023-09-08T10:20:40;9.23;;;6.32;;
6651;SDS011;3362;50.892;10.692;2023-09-08T10:23:11;16.35;;;7.93;;
6651;SDS011;3362;50.892;10.692;2023-09-08T10:25:39;11.07;;;5.20;;
6651;SDS011;3362;50.892;10.692;2023-09-08T10:28:08;12.20;;;6.93;;
6651;SDS011;3362;50.892;10.692;2023-09-08T10:30:34;8.60;;;4.57;;
6651;SDS011;3362;50.892;10.692;2023-09-08T10:33:01;7.65;;;4.65;;
6651;SDS011;3362;50.892;10.692;2023-09-08T10:35:28;4.45;;;4.00;;
6651;SDS011;3362;50.892;10.692;2023-09-08T10:40:38;4.88;;;3.08;;
6651;SDS011;3362;50.892;10.692;2023-09-08T10:43:07;6.95;;;4.35;;
6651;SDS011;3362;50.892;10.692;2023-09-08T10:45:34;13.85;;;5.80;;
6651;SDS011;3362;50.892;10.692;2023-09-08T10:48:00;14.70;;;7.75;;
6651;SDS011;3362;50.892;10.692;2023-09-08T10:50:29;9.30;;;5.95;;
6651;SDS011;3362;50.892;10.692;2023-09-08T10:53:06;16.00;;;8.80;;
6651;SDS011;3362;50.892;10.692;2023-09-08T10:55:35;11.82;;;6.95;;
6651;SDS011;3362;50.892;10.692;2023-09-08T10:58:03;7.40;;;3.67;;
6651;SDS011;3362;50.892;10.692;2023-09-08T11:00:29;9.57;;;2.97;;
6651;SDS011;3362;50.892;10.692;2023-09-08T11:03:08;5.10;;;3.08;;
6651;SDS011;3362;50.892;10.692;2023-09-08T11:05:34;3.25;;;2.90;;
6651;SDS011;3362;50.892;10.692;2023-09-08T11:08:01;5.32;;;4.30;;
6651;SDS011;3362;50.892;10.692;2023-09-08T11:10:28;5.85;;;3.58;;
6651;SDS011;3362;50.892;10.692;2023-09-08T11:12:55;11.52;;;5.18;;
6651;SDS011;3362;50.892;10.692;2023-09-08T11:15:23;8.60;;;5.47;;
6651;SDS011;3362;50.892;10.692;2023-09-08T11:17:49;11.57;;;6.25;;
6651;SDS011;3362;50.892;10.692;2023-09-08T11:20:25;8.43;;;5.43;;
6651;SDS011;3362;50.892;10.692;2023-09-08T11:22:51;8.90;;;4.80;;
6651;SDS011;3362;50.892;10.692;2023-09-08T11:25:18;6.28;;;4.93;;
6651;SDS011;3362;50.892;10.692;2023-09-08T11:27:46;8.43;;;4.68;;
6651;SDS011;3362;50.892;10.692;2023-09-08T11:30:15;3.83;;;2.97;;
6651;SDS011;3362;50.892;10.692;2023-09-08T11:32:42;6.82;;;4.07;;
6651;SDS011;3362;50.892;10.692;2023-09-08T11:35:09;7.38;;;4.00;;
6651;SDS011;3362;50.892;10.692;2023-09-08T11:37:36;6.95;;;3.70;;
6651;SDS011;3362;50.892;10.692;2023-09-08T11:40:03;6.45;;;3.42;;
6651;SDS011;3362;50.892;10.692;2023-09-08T11:42:34;6.93;;;3.42;;
6651;SDS011;3362;50.892;10.692;2023-09-08T11:45:00;5.80;;;4.05;;
6651;SDS011;3362;50.892;10.692;2023-09-08T11:47:28;4.10;;;3.40;;
6651;SDS011;3362;50.892;10.692;2023-09-08T11:49:56;6.90;;;3.40;;
6651;SDS011;3362;50.892;10.692;2023-09-08T11:52:23;4.20;;;2.90;;
6651;SDS011;3362;50.892;10.692;2023-09-08T11:54:49;4.20;;;2.15;;
6651;SDS011;3362;50.892;10.692;2023-09-08T11:57:16;8.55;;;3.13;;
6651;SDS011;3362;50.892;10.692;2023-09-08T11:59:43;3.25;;;2.92;;
6651;SDS011;3362;50.892;10.692;2023-09-08T12:02:11;3.42;;;2.42;;
6651;SDS011;3362;50.892;10.692;2023-09-08T12:04:37;3.08;;;2.30;;
6651;SDS011;3362;50.892;10.692;2023-09-08T12:07:06;2.78;;;2.30;;
6651;SDS011;3362;50.892;10.692;2023-09-08T12:09:34;6.03;;;2.67;;
6651;SDS011;3362;50.892;10.692;2023-09-08T12:12:00;2.78;;;2.05;;
6651;SDS011;3362;50.892;10.692;2023-09-08T12:14:28;5.97;;;2.95;;
6651;SDS011;3362;50.892;10.692;2023-09-08T12:17:04;3.90;;;2.42;;
6651;SDS011;3362;50.892;10.692;2023-09-08T12:19:32;3.30;;;2.40;;
6651;SDS011;3362;50.892;10.692;2023-09-08T12:22:00;2.83;;;2.45;;
6651;SDS011;3362;50.892;10.692;2023-09-08T12:24:47;4.63;;;2.75;;
6651;SDS011;3362;50.892;10.692;2023-09-08T12:27:14;5.57;;;2.78;;
6651;SDS011;3362;50.892;10.692;2023-09-08T12:29:40;3.78;;;2.65;;
6651;SDS011;3362;50.892;10.692;2023-09-08T12:32:06;2.95;;;2.22;;
6651;SDS011;3362;50.892;10.692;2023-09-08T12:34:33;3.10;;;2.45;;
6651;SDS011;3362;50.892;10.692;2023-09-08T12:37:00;5.43;;;2.75;;
6651;SDS011;3362;50.892;10.692;2023-09-08T12:39:27;3.88;;;2.33;;
6651;SDS011;3362;50.892;10.692;2023-09-08T12:41:54;2.55;;;2.35;;
6651;SDS011;3362;50.892;10.692;2023-09-08T12:44:20;3.45;;;2.45;;
6651;SDS011;3362;50.892;10.692;2023-09-08T12:46:47;3.25;;;2.17;;
6651;SDS011;3362;50.892;10.692;2023-09-08T12:49:13;4.43;;;2.90;;
6651;SDS011;3362;50.892;10.692;2023-09-08T12:51:39;3.97;;;2.17;;
6651;SDS011;3362;50.892;10.692;2023-09-08T12:54:06;4.38;;;2.60;;
6651;SDS011;3362;50.892;10.692;2023-09-08T12:56:33;2.60;;;2.40;;
6651;SDS011;3362;50.892;10.692;2023-09-08T12:59:00;2.60;;;2.22;;
6651;SDS011;3362;50.892;10.692;2023-09-08T13:01:26;3.35;;;2.50;;
6651;SDS011;3362;50.892;10.692;2023-09-08T13:03:54;3.13;;;1.95;;
6651;SDS011;3362;50.892;10.692;2023-09-08T13:06:20;2.83;;;2.20;;
6651;SDS011;3362;50.892;10.692;2023-09-08T13:08:46;2.63;;;2.42;;
6651;SDS011;3362;50.892;10.692;2023-09-08T13:11:13;3.08;;;2.75;;
6651;SDS011;3362;50.892;10.692;2023-09-08T13:13:39;2.92;;;2.60;;
6651;SDS011;3362;50.892;10.692;2023-09-08T13:16:06;2.85;;;2.30;;
6651;SDS011;3362;50.892;10.692;2023-09-08T13:18:33;3.03;;;1.92;;
6651;SDS011;3362;50.892;10.692;2023-09-08T13:21:03;6.03;;;2.60;;
6651;SDS011;3362;50.892;10.692;2023-09-08T13:23:29;3.13;;;2.45;;
6651;SDS011;3362;50.892;10.692;2023-09-08T13:25:55;2.30;;;2.05;;
6651;SDS011;3362;50.892;10.692;2023-09-08T13:28:22;3.45;;;2.35;;
6651;SDS011;3362;50.892;10.692;2023-09-08T13:30:48;2.55;;;2.35;;
6651;SDS011;3362;50.892;10.692;2023-09-08T13:33:16;2.75;;;2.25;;
6651;SDS011;3362;50.892;10.692;2023-09-08T13:35:42;3.53;;;2.65;;
6651;SDS011;3362;50.892;10.692;2023-09-08T13:38:08;4.00;;;3.35;;
6651;SDS011;3362;50.892;10.692;2023-09-08T13:40:34;4.35;;;3.47;;
6651;SDS011;3362;50.892;10.692;2023-09-08T13:43:01;4.18;;;3.42;;
6651;SDS011;3362;50.892;10.692;2023-09-08T13:45:27;3.60;;;2.47;;
6651;SDS011;3362;50.892;10.692;2023-09-08T13:47:53;5.38;;;2.90;;
6651;SDS011;3362;50.892;10.692;2023-09-08T13:50:21;4.00;;;2.80;;
6651;SDS011;3362;50.892;10.692;2023-09-08T13:52:48;4.38;;;2.58;;
6651;SDS011;3362;50.892;10.692;2023-09-08T13:55:15;4.10;;;2.63;;
6651;SDS011;3362;50.892;10.692;2023-09-08T13:57:41;4.32;;;3.47;;
6651;SDS011;3362;50.892;10.692;2023-09-08T14:00:08;3.58;;;2.90;;
6651;SDS011;3362;50.892;10.692;2023-09-08T14:02:34;2.63;;;2.42;;
6651;SDS011;3362;50.892;10.692;2023-09-08T14:05:01;3.88;;;2.42;;
6651;SDS011;3362;50.892;10.692;2023-09-08T14:07:29;3.40;;;2.78;;
6651;SDS011;3362;50.892;10.692;2023-09-08T14:09:55;4.20;;;2.58;;
6651;SDS011;3362;50.892;10.692;2023-09-08T14:12:23;4.43;;;3.22;;
6651;SDS011;3362;50.892;10.692;2023-09-08T14:14:49;3.78;;;3.20;;
6651;SDS011;3362;50.892;10.692;2023-09-08T14:17:16;4.60;;;3.63;;
6651;SDS011;3362;50.892;10.692;2023-09-08T14:19:42;6.63;;;3.30;;
6651;SDS011;3362;50.892;10.692;2023-09-08T14:22:08;2.92;;;2.60;;
6651;SDS011;3362;50.892;10.692;2023-09-08T14:24:36;3.42;;;2.47;;
6651;SDS011;3362;50.892;10.692;2023-09-08T14:27:02;3.83;;;2.75;;
6651;SDS011;3362;50.892;10.692;2023-09-08T14:29:28;3.63;;;3.03;;
6651;SDS011;3362;50.892;10.692;2023-09-08T14:31:55;5.95;;;3.47;;
6651;SDS011;3362;50.892;10.692;2023-09-08T14:34:21;4.05;;;3.33;;
6651;SDS011;3362;50.892;10.692;2023-09-08T14:36:48;5.38;;;3.83;;
6651;SDS011;3362;50.892;10.692;2023-09-08T14:39:14;2.67;;;2.47;;
6651;SDS011;3362;50.892;10.692;2023-09-08T14:41:44;7.03;;;4.00;;
6651;SDS011;3362;50.892;10.692;2023-09-08T14:44:10;5.63;;;3.70;;
6651;SDS011;3362;50.892;10.692;2023-09-08T14:46:36;6.20;;;4.43;;
6651;SDS011;3362;50.892;10.692;2023-09-08T14:49:02;6.95;;;3.00;;
6651;SDS011;3362;50.892;10.692;2023-09-08T14:51:29;3.95;;;3.45;;
6651;SDS011;3362;50.892;10.692;2023-09-08T14:53:55;4.13;;;2.83;;
6651;SDS011;3362;50.892;10.692;2023-09-08T14:56:21;2.97;;;2.70;;
6651;SDS011;3362;50.892;10.692;2023-09-08T14:58:49;8.88;;;4.15;;
6651;SDS011;3362;50.892;10.692;2023-09-08T15:01:15;6.15;;;3.33;;
6651;SDS011;3362;50.892;10.692;2023-09-08T15:03:41;5.18;;;2.90;;
6651;SDS011;3362;50.892;10.692;2023-09-08T15:06:08;5.10;;;3.15;;
6651;SDS011;3362;50.892;10.692;2023-09-08T15:08:35;3.83;;;3.00;;
6651;SDS011;3362;50.892;10.692;2023-09-08T15:11:01;6.68;;;3.88;;
6651;SDS011;3362;50.892;10.692;2023-09-08T15:13:27;3.50;;;2.97;;
6651;SDS011;3362;50.892;10.692;2023-09-08T15:15:55;2.83;;;2.50;;
6651;SDS011;3362;50.892;10.692;2023-09-08T15:18:23;3.15;;;2.83;;
6651;SDS011;3362;50.892;10.692;2023-09-08T15:20:51;5.35;;;2.80;;
6651;SDS011;3362;50.892;10.692;2023-09-08T15:23:17;4.32;;;3.22;;
6651;SDS011;3362;50.892;10.692;2023-09-08T15:25:49;5.25;;;3.03;;
6651;SDS011;3362;50.892;10.692;2023-09-08T15:28:16;5.68;;;3.42;;
6651;SDS011;3362;50.892;10.692;2023-09-08T15:30:45;3.92;;;3.53;;
6651;SDS011;3362;50.892;10.692;2023-09-08T15:33:13;4.70;;;2.83;;
6651;SDS011;3362;50.892;10.692;2023-09-08T15:35:40;3.10;;;2.80;;
6651;SDS011;3362;50.892;10.692;2023-09-08T15:38:06;6.20;;;3.22;;
6651;SDS011;3362;50.892;10.692;2023-09-08T15:40:33;4.05;;;3.15;;
6651;SDS011;3362;50.892;10.692;2023-09-08T15:42:59;4.47;;;3.13;;
6651;SDS011;3362;50.892;10.692;2023-09-08T15:45:25;3.35;;;3.05;;
6651;SDS011;3362;50.892;10.692;2023-09-08T15:47:51;5.55;;;2.95;;
6651;SDS011;3362;50.892;10.692;2023-09-08T15:50:19;4.50;;;2.78;;
6651;SDS011;3362;50.892;10.692;2023-09-08T15:52:45;4.05;;;2.72;;
6651;SDS011;3362;50.892;10.692;2023-09-08T15:55:12;3.75;;;3.33;;
6651;SDS011;3362;50.892;10.692;2023-09-08T15:57:38;3.92;;;3.25;;
6651;SDS011;3362;50.892;10.692;2023-09-08T16:00:05;4.07;;;3.15;;
6651;SDS011;3362;50.892;10.692;2023-09-08T16:02:31;3.33;;;2.92;;